Time;durP1;ratioP1;P1;durP2;ratioP2;P2;SDS_P1;SDS_P2;PMS_P1;PMS_P2;Temp;Humidity;BMP_temperature;BMP_pressure;BME280_temperature;BME280_humidity;BME280_pressure;Samples;Min_cycle;Max_cycle;Signal;HPM_P1;HPM_P2
2022/08/13 00:00:34;;;;;;;9.85;2.60;;;17.10;99.90;;;16.20;89.94;101689.94;4964512;28;20035;-72
2022/08/13 00:03:01;;;;;;;7.85;2.60;;;17.00;99.90;;;16.15;92.42;101694.63;4960694;28;20038;-72
2022/08/13 00:05:27;;;;;;;9.13;2.85;;;17.10;99.90;;;16.17;92.62;101698.06;4964280;28;20042;-73
2022/08/13 00:07:53;;;;;;;7.15;2.75;;;17.10;99.90;;;16.15;93.99;101686.66;4957593;28;20030;-72
2022/08/13 00:10:39;;;;;;;12.65;2.75;;;17.10;99.90;;;16.16;94.96;101684.88;4928646;28;20167;-72
2022/08/13 00:13:06;;;;;;;7.85;3.03;;;17.10;99.90;;;16.20;95.42;101679.31;4967282;28;20041;-72
2022/08/13 00:15:43;;;;;;;8.20;2.58;;;17.10;99.90;;;16.27;95.43;101679.84;4970822;28;20136;-72
2022/08/13 00:18:21;;;;;;;9.57;3.03;;;17.20;99.90;;;16.31;95.23;101686.69;4969095;28;20034;-71
2022/08/13 00:20:53;;;;;;;8.60;3.17;;;17.20;99.90;;;16.36;93.89;101689.09;4958375;28;20057;-72
2022/08/13 00:23:22;;;;;;;9.20;3.05;;;17.20;99.90;;;16.33;93.75;101683.97;4968586;28;20038;-72
2022/08/13 00:25:54;;;;;;;8.23;3.00;;;17.20;99.90;;;16.31;93.97;101677.88;4965441;28;20054;-72
2022/08/13 00:28:24;;;;;;;10.30;2.42;;;17.20;99.90;;;16.26;94.18;101675.44;4955689;28;20038;-72
2022/08/13 00:30:50;;;;;;;6.57;2.88;;;17.10;99.90;;;16.22;95.22;101679.25;4957693;28;20495;-72
2022/08/13 00:33:19;;;;;;;8.52;3.00;;;17.10;99.90;;;16.24;95.17;101679.13;4959136;28;20104;-72
2022/08/13 00:35:51;;;;;;;5.63;2.80;;;17.10;99.90;;;16.19;95.95;101676.72;4934496;28;20057;-72
2022/08/13 00:38:24;;;;;;;6.13;2.60;;;17.10;99.90;;;16.22;96.07;101678.34;4949561;28;20631;-72
2022/08/13 00:41:00;;;;;;;6.47;2.72;;;17.10;99.90;;;16.24;96.73;101676.47;4950442;28;20031;-72
2022/08/13 00:43:32;;;;;;;6.28;2.67;;;17.10;99.90;;;16.28;96.82;101678.03;4957595;28;20034;-72
2022/08/13 00:45:59;;;;;;;4.65;2.83;;;17.20;99.90;;;16.33;96.42;101681.31;4951548;28;20062;-72
2022/08/13 00:48:43;;;;;;;15.18;3.38;;;17.20;99.90;;;16.37;96.06;101683.69;4952489;28;20032;-73
2022/08/13 00:51:10;;;;;;;9.10;2.88;;;17.20;99.90;;;16.39;95.61;101684.47;4964687;28;20039;-72
2022/08/13 00:53:40;;;;;;;5.43;2.38;;;17.30;99.90;;;16.43;95.30;101686.94;4951536;28;21651;-72
2022/08/13 00:56:10;;;;;;;8.48;2.47;;;17.30;99.90;;;16.44;95.04;101678.06;4958552;28;20041;-73
2022/08/13 00:58:37;;;;;;;7.07;2.75;;;17.30;99.90;;;16.43;95.43;101674.50;4937520;28;20031;-72
2022/08/13 01:01:06;;;;;;;13.45;2.72;;;17.30;99.90;;;16.46;94.76;101679.66;4952797;28;20574;-72
2022/08/13 01:03:36;;;;;;;4.90;2.70;;;17.30;99.90;;;16.45;94.23;101675.28;4956499;28;20061;-73
2022/08/13 01:06:06;;;;;;;8.70;2.70;;;17.30;99.90;;;16.49;93.81;101682.16;4944988;28;20225;-72
2022/08/13 01:08:36;;;;;;;6.38;2.80;;;17.40;99.90;;;16.48;93.90;101680.44;4947400;28;21536;-72
2022/08/13 01:11:07;;;;;;;5.72;2.72;;;17.30;99.90;;;16.43;94.09;101677.16;4956900;28;20043;-72
2022/08/13 01:13:34;;;;;;;11.68;3.22;;;17.30;99.90;;;16.44;94.26;101670.06;4950489;28;20117;-73
2022/08/13 01:16:13;;;;;;;11.98;2.58;;;17.30;99.90;;;16.41;93.82;101668.41;4954843;28;20039;-72
2022/08/13 01:18:49;;;;;;;8.50;2.72;;;17.30;99.90;;;16.41;94.18;101671.06;4954180;28;20723;-72
2022/08/13 01:21:24;;;;;;;13.15;3.00;;;17.30;99.90;;;16.39;94.62;101668.53;4952433;28;20035;-72
2022/08/13 01:23:54;;;;;;;8.05;2.63;;;17.30;99.90;;;16.36;94.16;101666.03;4960863;28;20037;-72
2022/08/13 01:26:23;;;;;;;10.13;2.60;;;17.30;99.90;;;16.37;94.23;101672.19;4927218;28;20407;-72
2022/08/13 01:28:51;;;;;;;4.75;2.40;;;17.20;99.90;;;16.38;93.23;101666.78;4971442;28;20065;-72
2022/08/13 01:31:19;;;;;;;6.70;2.63;;;17.20;99.90;;;16.32;93.49;101664.47;4933728;28;20097;-72
2022/08/13 01:33:48;;;;;;;5.43;2.63;;;17.20;99.90;;;16.25;94.06;101660.47;4972630;28;20045;-72
2022/08/13 01:36:16;;;;;;;4.88;2.47;;;17.10;99.90;;;16.24;94.41;101656.09;4953881;28;20039;-72
2022/08/13 01:38:43;;;;;;;5.45;2.85;;;17.10;99.90;;;16.26;94.68;101663.97;4955660;28;20411;-72
2022/08/13 01:41:09;;;;;;;11.05;2.80;;;17.20;99.90;;;16.28;95.46;101660.28;4970403;28;20046;-73
2022/08/13 01:43:40;;;;;;;6.25;2.80;;;17.20;99.90;;;16.33;95.48;101662.69;4954273;28;20497;-72
2022/08/13 01:46:10;;;;;;;15.85;3.00;;;17.20;99.90;;;16.37;95.99;101656.25;4960274;28;20129;-73
2022/08/13 01:51:34;;;;;;;5.45;2.35;;;17.20;99.90;;;16.40;95.26;101648.13;4958137;28;22283;-72
2022/08/13 01:54:01;;;;;;;5.32;2.90;;;17.20;99.90;;;16.41;95.40;101647.16;4971345;28;20042;-72
2022/08/13 01:56:30;;;;;;;8.32;3.15;;;17.20;99.90;;;16.39;95.21;101654.34;4956810;28;20089;-72
2022/08/13 01:59:02;;;;;;;8.77;2.90;;;17.20;99.90;;;16.39;94.55;101644.59;4952317;28;20561;-72
2022/08/13 02:01:30;;;;;;;3.53;2.70;;;17.20;99.90;;;16.32;94.20;101645.88;4950571;28;20105;-72
2022/08/13 02:03:57;;;;;;;5.03;3.00;;;17.10;99.90;;;16.28;93.88;101646.13;4961423;28;20034;-72
2022/08/13 02:06:31;;;;;;;7.82;2.90;;;17.10;99.90;;;16.14;95.84;101650.44;4953198;28;20030;-73
2022/08/13 02:09:02;;;;;;;9.38;3.25;;;17.00;99.90;;;16.10;98.03;101656.84;4958487;28;20073;-72
2022/08/13 02:11:35;;;;;;;4.90;2.85;;;17.00;99.90;;;16.09;98.67;101657.81;4954181;28;20027;-72
2022/08/13 02:14:04;;;;;;;6.93;2.67;;;17.00;99.90;;;16.12;99.24;101652.31;4967143;28;20038;-72
2022/08/13 02:16:36;;;;;;;7.45;2.55;;;17.00;99.90;;;16.13;98.77;101648.72;4956059;28;20459;-72
2022/08/13 02:19:07;;;;;;;4.30;2.85;;;17.00;99.90;;;16.12;98.64;101651.47;4961019;28;20403;-72
2022/08/13 02:21:36;;;;;;;9.00;3.03;;;17.00;99.90;;;16.11;98.89;101644.41;4947626;28;20118;-72
2022/08/13 02:24:08;;;;;;;12.57;3.33;;;17.00;99.90;;;16.06;98.47;101643.81;4953794;28;20026;-72
2022/08/13 02:26:38;;;;;;;5.72;3.00;;;16.90;99.90;;;15.97;96.49;101639.88;4944296;28;20048;-72
2022/08/13 02:29:05;;;;;;;11.18;3.60;;;16.80;99.90;;;15.83;98.69;101645.06;4961712;28;20100;-72
2022/08/13 02:31:32;;;;;;;5.05;2.92;;;16.70;99.90;;;15.72;100.00;101645.63;4956860;28;20041;-72
2022/08/13 02:33:58;;;;;;;9.98;3.13;;;16.70;99.90;;;15.70;100.00;101636.88;4939519;28;20054;-72
2022/08/13 02:36:25;;;;;;;8.18;3.25;;;16.70;99.90;;;15.73;100.00;101636.75;4934879;28;20050;-72
2022/08/13 02:38:55;;;;;;;9.35;3.33;;;16.70;99.90;;;15.76;100.00;101632.13;4968476;28;20058;-72
2022/08/13 02:44:10;;;;;;;11.48;3.25;;;16.70;99.90;;;15.83;100.00;101622.03;4951793;28;20113;-72
2022/08/13 02:46:38;;;;;;;9.73;3.35;;;16.70;99.90;;;15.85;100.00;101625.44;4956338;28;20026;-72
2022/08/13 02:49:04;;;;;;;8.85;3.70;;;16.70;99.90;;;15.87;100.00;101628.88;4951801;28;20407;-72
2022/08/13 02:51:31;;;;;;;11.82;3.33;;;16.70;99.90;;;15.82;100.00;101630.09;4959183;28;20037;-72
2022/08/13 02:54:01;;;;;;;11.52;3.58;;;16.70;99.90;;;15.79;100.00;101639.94;4954713;28;20050;-72
2022/08/13 02:56:28;;;;;;;9.30;3.47;;;16.70;99.90;;;15.79;100.00;101639.94;4952409;28;20415;-72
2022/08/13 02:58:56;;;;;;;9.25;3.70;;;16.60;99.90;;;15.79;100.00;101636.44;4956063;28;20039;-73
2022/08/13 03:01:27;;;;;;;7.95;3.33;;;16.70;99.90;;;15.76;100.00;101641.88;4957045;28;20034;-72
2022/08/13 03:03:54;;;;;;;15.32;3.58;;;16.70;99.90;;;15.72;100.00;101625.28;4960602;28;20113;-73
2022/08/13 03:06:21;;;;;;;8.73;3.58;;;16.60;99.90;;;15.68;100.00;101626.34;4954553;28;20042;-73
2022/08/13 03:08:51;;;;;;;8.40;3.28;;;16.60;99.90;;;15.69;100.00;101622.75;4963488;28;20073;-74
2022/08/13 03:11:18;;;;;;;9.45;3.65;;;16.60;99.90;;;15.75;100.00;101627.75;4942564;28;20499;-73
2022/08/13 03:14:05;;;;;;;9.90;3.28;;;16.70;99.90;;;15.81;100.00;101628.34;4968452;28;20443;-73
2022/08/13 03:16:31;;;;;;;9.05;3.35;;;16.70;99.90;;;15.84;100.00;101622.91;4956322;28;20049;-74
2022/08/13 03:18:58;;;;;;;7.90;2.90;;;16.70;99.90;;;15.87;100.00;101630.69;4962824;28;20490;-74
2022/08/13 03:21:41;;;;;;;9.52;3.78;;;16.70;99.90;;;15.90;100.00;101623.41;4952082;28;20038;-74
2022/08/13 03:24:19;;;;;;;10.27;3.35;;;16.70;99.90;;;15.88;100.00;101629.75;4954549;28;20498;-73
2022/08/13 03:26:45;;;;;;;12.00;3.13;;;16.70;99.90;;;15.82;100.00;101624.78;4943062;28;20045;-73
2022/08/13 03:29:11;;;;;;;10.13;3.33;;;16.70;99.90;;;15.82;100.00;101627.44;4960746;28;20499;-73
2022/08/13 03:31:39;;;;;;;6.40;3.30;;;16.70;99.90;;;15.81;100.00;101626.59;4957123;28;20097;-74
2022/08/13 03:34:06;;;;;;;6.05;3.00;;;16.70;99.90;;;15.79;100.00;101625.81;4956416;28;20097;-74
2022/08/13 03:36:36;;;;;;;7.95;3.35;;;16.70;99.90;;;15.83;100.00;101623.81;4960167;28;20035;-73
2022/08/13 03:39:03;;;;;;;11.95;3.85;;;16.70;99.90;;;15.86;100.00;101628.97;4956039;28;20122;-74
2022/08/13 03:41:29;;;;;;;14.85;3.28;;;16.70;99.90;;;15.88;100.00;101619.97;4939901;28;20054;-75
2022/08/13 03:43:55;;;;;;;9.63;3.40;;;16.70;99.90;;;15.85;100.00;101612.16;4967155;28;20037;-73
2022/08/13 03:46:24;;;;;;;10.35;3.85;;;16.80;99.90;;;15.88;100.00;101614.69;4952968;28;20632;-73
2022/08/13 03:48:51;;;;;;;7.00;3.67;;;16.80;99.90;;;15.95;100.00;101609.88;4967258;28;20084;-73
2022/08/13 03:51:23;;;;;;;6.03;3.42;;;16.80;99.90;;;16.01;100.00;101606.88;4959328;28;20066;-73
2022/08/13 03:53:52;;;;;;;9.45;3.35;;;16.90;99.90;;;16.07;100.00;101606.56;4969751;28;20038;-75
2022/08/13 03:56:21;;;;;;;7.80;3.22;;;16.90;99.90;;;16.14;100.00;101615.03;4929117;28;20034;-73
2022/08/13 03:58:46;;;;;;;5.43;3.40;;;17.00;99.90;;;16.24;100.00;101616.25;4967802;28;20551;-74
2022/08/13 04:01:15;;;;;;;9.43;3.55;;;17.10;99.90;;;16.35;100.00;101616.47;4954757;28;20045;-74
2022/08/13 04:03:41;;;;;;;8.65;3.10;;;17.20;99.90;;;16.43;100.00;101624.00;4958553;28;20061;-73
2022/08/13 04:06:12;;;;;;;6.15;3.50;;;17.30;99.90;;;16.48;100.00;101621.97;4944700;28;20096;-74
2022/08/13 04:08:39;;;;;;;7.70;3.45;;;17.30;99.90;;;16.58;100.00;101620.47;4968633;28;20092;-73
2022/08/13 04:11:10;;;;;;;11.07;3.90;;;17.40;99.90;;;16.68;100.00;101622.63;4957501;28;20117;-74
2022/08/13 04:13:37;;;;;;;7.30;3.72;;;17.40;99.90;;;16.78;100.00;101621.09;4957756;28;20038;-73
2022/08/13 04:16:07;;;;;;;5.20;3.50;;;17.50;99.90;;;16.87;100.00;101623.28;4956263;28;20034;-73
2022/08/13 04:18:35;;;;;;;10.07;3.75;;;17.60;99.90;;;16.94;100.00;101613.97;4947954;28;20141;-73
2022/08/13 04:21:04;;;;;;;13.23;3.60;;;17.70;99.90;;;17.04;100.00;101624.94;4948121;28;20061;-73
2022/08/13 04:23:33;;;;;;;15.32;3.67;;;17.80;99.90;;;17.15;100.00;101624.31;4942398;28;20046;-73
2022/08/13 04:26:00;;;;;;;7.57;3.47;;;17.90;99.90;;;17.28;100.00;101609.31;4954614;28;20118;-73
2022/08/13 04:28:26;;;;;;;10.38;3.58;;;18.00;99.90;;;17.45;100.00;101615.38;4971708;28;20055;-74
2022/08/13 04:30:52;;;;;;;6.78;3.28;;;18.20;99.90;;;17.68;100.00;101616.63;4957483;28;20065;-74
2022/08/13 04:33:18;;;;;;;15.80;3.60;;;18.40;99.90;;;17.88;100.00;101612.75;4949337;28;20742;-73
2022/08/13 04:35:46;;;;;;;12.70;3.65;;;18.60;99.90;;;18.38;100.00;101621.97;4948413;28;20039;-73
2022/08/13 04:38:13;;;;;;;7.60;3.17;;;19.20;99.90;;;19.07;100.00;101633.41;4958265;28;20476;-74
2022/08/13 04:40:46;;;;;;;8.52;3.35;;;19.50;99.90;;;19.78;100.00;101633.84;4959042;28;20062;-74
2022/08/13 04:43:13;;;;;;;9.05;3.15;;;20.40;99.90;;;21.13;94.14;101633.78;4948820;28;20027;-74
2022/08/13 04:45:41;;;;;;;8.80;2.90;;;21.40;99.90;;;22.38;84.78;101641.72;4970687;28;20079;-73
2022/08/13 04:48:13;;;;;;;5.85;2.83;;;22.00;99.90;;;22.87;80.11;101645.72;4957181;28;20392;-73
2022/08/13 04:50:43;;;;;;;10.57;2.70;;;22.80;99.90;;;24.01;75.32;101652.03;4959147;28;20077;-75
2022/08/13 04:53:21;;;;;;;11.93;2.50;;;23.80;99.90;;;25.75;68.43;101657.56;4954358;28;20058;-74
2022/08/13 04:55:47;;;;;;;17.23;2.42;;;24.90;99.90;;;26.94;63.34;101662.97;4984046;28;20051;-73
2022/08/13 04:58:14;;;;;;;12.50;2.50;;;25.90;99.90;;;28.11;60.00;101659.81;4962094;28;20646;-74
2022/08/13 05:00:41;;;;;;;7.10;2.80;;;26.70;99.90;;;28.95;57.30;101671.50;4943067;28;20581;-74
2022/08/13 05:03:21;;;;;;;6.72;2.30;;;27.60;99.90;;;30.02;54.70;101672.16;4962597;28;20042;-74
2022/08/13 05:05:51;;;;;;;6.60;2.22;;;28.30;99.90;;;30.55;52.91;101669.66;4962537;28;20039;-74
2022/08/13 05:08:19;;;;;;;5.75;2.20;;;28.80;99.90;;;31.05;51.62;101678.31;4960621;28;20061;-74
2022/08/13 05:10:47;;;;;;;7.53;2.28;;;29.30;99.90;;;31.64;49.89;101683.00;4939707;28;20030;-74
2022/08/13 05:13:31;;;;;;;14.75;2.58;;;29.80;99.90;;;32.61;48.03;101692.84;4960929;28;20529;-74
2022/08/13 05:16:00;;;;;;;7.30;2.30;;;30.50;99.70;;;33.22;46.98;101695.97;4938208;28;20034;-74
2022/08/13 05:18:28;;;;;;;12.73;2.50;;;31.00;99.00;;;33.66;46.36;101700.28;4962108;28;20042;-74
2022/08/13 05:20:57;;;;;;;8.73;2.40;;;31.30;97.00;;;33.66;45.18;101708.47;4962883;28;20050;-75
2022/08/13 05:23:24;;;;;;;6.50;2.17;;;31.20;96.70;;;33.31;45.87;101710.31;4970931;28;20042;-74
2022/08/13 05:25:51;;;;;;;8.95;2.05;;;31.10;95.60;;;32.96;45.72;101714.78;4941553;28;20042;-75
2022/08/13 05:28:17;;;;;;;9.75;1.95;;;31.10;96.00;;;33.07;45.77;101720.63;4959065;28;20034;-75
2022/08/13 05:30:47;;;;;;;3.72;2.30;;;31.20;96.40;;;33.54;45.44;101720.94;4960534;28;20049;-73
2022/08/13 05:33:22;;;;;;;6.00;2.08;;;31.50;96.10;;;34.39;43.53;101720.81;4952478;28;20052;-74
2022/08/13 05:35:53;;;;;;;8.88;2.28;;;31.90;95.60;;;34.90;42.59;101725.78;4959406;28;20039;-73
2022/08/13 05:38:23;;;;;;;6.97;2.17;;;31.90;94.40;;;33.96;44.12;101741.00;4959857;28;20050;-75
2022/08/13 05:40:51;;;;;;;6.97;2.33;;;32.00;94.80;;;33.90;43.84;101726.25;4972387;28;20750;-74
2022/08/13 05:43:20;;;;;;;4.82;2.05;;;31.90;94.70;;;33.62;44.57;101728.19;4956108;28;20043;-74
2022/08/13 05:45:57;;;;;;;9.00;2.30;;;31.70;94.30;;;33.67;44.66;101742.06;4956369;28;20031;-75
2022/08/13 05:48:56;;;;;;;11.80;2.63;;;31.80;95.00;;;34.13;42.60;101740.66;4942263;28;20031;-75
2022/08/13 05:51:33;;;;;;;10.77;2.30;;;31.80;93.90;;;33.63;44.15;101729.88;4957340;28;20042;-75
2022/08/13 05:54:01;;;;;;;10.02;2.20;;;31.70;93.20;;;33.27;44.24;101737.16;4940792;28;20035;-75
2022/08/13 05:56:32;;;;;;;7.30;2.53;;;31.60;93.70;;;33.60;44.14;101742.03;4961961;28;20041;-74
2022/08/13 05:58:58;;;;;;;9.63;2.17;;;31.70;93.90;;;33.19;44.06;101734.56;4956948;28;20199;-74
2022/08/13 06:04:14;;;;;;;7.85;2.30;;;31.10;94.10;;;31.21;48.27;101729.84;4962473;28;20076;-74
2022/08/13 06:06:42;;;;;;;8.95;2.47;;;30.70;94.70;;;30.56;49.48;101728.44;4958843;28;20038;-75
2022/08/13 06:09:08;;;;;;;8.57;2.08;;;30.20;94.90;;;29.96;50.84;101724.44;4958986;28;20038;-75
2022/08/13 06:11:38;;;;;;;15.00;2.55;;;29.90;95.20;;;30.17;50.58;101717.56;4957455;28;20129;-74
2022/08/13 06:14:04;;;;;;;7.68;2.35;;;30.10;96.20;;;32.63;46.33;101710.69;4957658;28;20034;-74
2022/08/13 06:16:30;;;;;;;9.60;2.08;;;30.60;95.50;;;32.83;45.44;101707.31;4961207;28;20041;-74
2022/08/13 06:18:57;;;;;;;8.82;2.40;;;31.30;94.50;;;34.48;42.81;101709.47;4958181;28;20495;-75
2022/08/13 06:21:25;;;;;;;7.30;2.28;;;32.10;93.30;;;35.50;40.77;101714.84;4971629;28;20043;-74
2022/08/13 06:23:52;;;;;;;5.45;2.40;;;32.90;92.40;;;35.87;39.78;101720.69;4957545;28;20076;-74
2022/08/13 06:26:20;;;;;;;13.48;2.78;;;33.80;91.60;;;37.01;37.90;101721.78;4959940;28;20034;-75
2022/08/13 06:28:49;;;;;;;9.18;2.22;;;34.70;91.10;;;38.15;36.65;101727.84;4959421;28;20491;-75
2022/08/13 06:31:20;;;;;;;10.65;2.30;;;35.70;88.50;;;38.99;35.22;101724.34;4951542;28;20057;-74
2022/08/13 06:33:46;;;;;;;4.07;2.25;;;36.40;83.50;;;39.11;34.72;101732.63;4957508;28;20137;-74
2022/08/13 06:36:15;;;;;;;8.90;2.45;;;36.70;81.10;;;38.75;34.81;101732.53;4947153;28;20066;-74
2022/08/13 06:38:50;;;;;;;7.10;2.55;;;36.70;81.20;;;38.46;34.33;101739.69;4953374;28;20035;-75
2022/08/13 06:41:21;;;;;;;9.60;2.50;;;37.00;79.60;;;39.02;33.55;101748.66;4959409;28;20045;-75
2022/08/13 06:43:51;;;;;;;6.30;2.70;;;37.30;76.80;;;39.24;32.99;101743.41;4955285;28;20046;-74
2022/08/13 06:46:26;;;;;;;9.50;2.40;;;37.80;78.30;;;39.75;32.95;101746.53;4957973;28;20556;-75
2022/08/13 06:48:52;;;;;;;11.30;2.50;;;37.90;77.60;;;39.44;33.67;101750.50;4969128;28;20060;-74
2022/08/13 06:51:20;;;;;;;8.80;2.63;;;38.00;76.40;;;39.12;33.47;101751.66;4959553;28;20050;-75
2022/08/13 06:53:47;;;;;;;8.50;2.30;;;38.30;75.70;;;39.85;32.44;101754.19;4954209;28;20102;-74
2022/08/13 06:56:19;;;;;;;9.27;2.72;;;38.20;75.00;;;38.95;33.54;101759.78;4958159;28;20495;-75
2022/08/13 06:58:47;;;;;;;6.00;2.25;;;38.20;75.10;;;39.16;33.05;101752.03;4945991;28;20051;-75
2022/08/13 07:01:23;;;;;;;10.57;2.47;;;38.10;73.20;;;39.11;32.86;101757.41;4954369;28;20035;-75
2022/08/13 07:03:51;;;;;;;5.65;2.40;;;38.30;72.80;;;39.39;32.50;101751.22;4971951;28;20048;-74
2022/08/13 07:06:22;;;;;;;5.97;2.70;;;38.50;71.60;;;39.44;32.38;101756.00;4935414;28;20042;-74
2022/08/13 07:08:49;;;;;;;5.75;3.03;;;38.40;69.70;;;38.82;31.78;101761.88;4948931;28;20093;-74
2022/08/13 07:11:23;;;;;;;10.35;2.63;;;37.80;71.40;;;37.12;34.20;101748.53;4936441;28;20067;-74
2022/08/13 07:14:02;;;;;;;5.57;2.65;;;37.50;72.90;;;36.78;35.16;101747.06;4951614;28;20042;-75
2022/08/13 07:16:32;;;;;;;10.43;2.83;;;36.90;72.60;;;36.33;34.97;101747.94;4959158;28;20037;-75
2022/08/13 07:19:00;;;;;;;6.65;2.40;;;36.30;72.90;;;35.86;35.60;101732.72;4955105;28;20049;-75
2022/08/13 07:21:30;;;;;;;8.65;2.90;;;36.60;74.70;;;37.50;33.70;101728.34;4937641;28;20027;-75
2022/08/13 07:24:00;;;;;;;13.23;2.72;;;36.50;71.80;;;36.48;34.54;101724.84;4957091;28;20038;-76
2022/08/13 07:26:33;;;;;;;4.38;2.40;;;36.50;72.00;;;36.34;34.98;101732.31;4963475;28;20046;-73
2022/08/13 07:29:05;;;;;;;10.82;2.70;;;36.00;72.10;;;34.13;37.41;101724.28;4952359;28;20136;-75
2022/08/13 07:31:41;;;;;;;13.45;2.75;;;34.90;74.60;;;33.04;39.19;101720.13;4965118;28;20031;-80
2022/08/13 07:34:07;;;;;;;9.63;2.75;;;33.60;77.10;;;31.59;41.99;101718.97;4942476;28;20042;-76
2022/08/13 07:36:38;;;;;;;11.73;2.58;;;32.60;80.10;;;31.10;42.92;101704.94;4953367;28;20609;-75
2022/08/13 07:39:12;;;;;;;9.13;2.53;;;31.90;81.50;;;30.32;44.09;101704.13;4960894;28;20050;-75
2022/08/13 07:41:46;;;;;;;4.18;2.60;;;31.20;84.10;;;29.97;45.71;101698.13;4956115;28;20494;-75
2022/08/13 07:44:23;;;;;;;8.35;2.40;;;30.70;86.10;;;29.97;46.15;101693.53;4958010;28;20495;-81
2022/08/13 07:46:51;;;;;;;11.85;2.25;;;30.30;87.30;;;29.49;46.65;101692.66;4951158;28;20527;-76
2022/08/13 07:49:20;;;;;;;9.70;2.40;;;30.00;88.40;;;29.32;47.60;101689.13;4932591;28;20045;-76
2022/08/13 07:51:48;;;;;;;6.05;2.35;;;29.70;89.00;;;29.12;47.59;101688.63;4956396;28;20054;-76
2022/08/13 07:54:15;;;;;;;4.78;2.05;;;29.50;90.10;;;28.96;48.26;101688.59;4957286;28;20126;-75
2022/08/13 07:56:47;;;;;;;7.07;2.30;;;29.30;90.30;;;28.93;48.30;101675.38;4964442;28;20034;-76
2022/08/13 07:59:17;;;;;;;10.25;2.33;;;29.20;90.40;;;28.96;48.70;101688.59;4944267;28;20031;-75
2022/08/13 08:01:53;;;;;;;4.75;2.50;;;29.30;90.80;;;28.96;48.56;101677.75;4957727;28;20046;-75
2022/08/13 08:04:24;;;;;;;8.75;2.30;;;29.30;91.10;;;29.25;48.87;101682.69;4978105;28;20046;-75
2022/08/13 08:06:50;;;;;;;6.53;2.13;;;29.50;91.30;;;29.53;48.82;101685.03;4957824;28;20611;-76
2022/08/13 08:09:26;;;;;;;8.82;2.50;;;29.90;91.20;;;30.29;47.65;101683.59;4940772;28;20034;-76
2022/08/13 08:14:38;;;;;;;7.55;2.25;;;31.70;90.00;;;32.48;44.39;101693.53;4951457;28;20053;-76
2022/08/13 08:17:11;;;;;;;6.93;2.58;;;32.20;90.00;;;32.11;44.98;101686.41;4956503;28;20050;-75
2022/08/13 08:19:41;;;;;;;7.72;2.40;;;32.10;88.40;;;31.73;45.88;101689.19;4954125;28;20459;-76
2022/08/13 08:22:11;;;;;;;11.20;2.70;;;31.90;88.90;;;31.09;47.42;101690.50;4956993;28;20414;-76
2022/08/13 08:24:37;;;;;;;8.05;2.60;;;31.80;90.20;;;30.81;48.57;101695.66;4972672;28;20097;-74
2022/08/13 08:27:10;;;;;;;7.35;2.50;;;31.20;89.80;;;30.19;48.32;101689.19;4972511;28;20033;-75
2022/08/13 08:29:40;;;;;;;8.43;2.50;;;30.60;90.50;;;29.69;49.67;101684.13;4955912;28;20407;-75
2022/08/13 08:32:10;;;;;;;9.50;2.42;;;30.10;91.30;;;29.26;51.23;101678.09;4956936;28;20038;-75
2022/08/13 08:34:47;;;;;;;12.15;2.50;;;29.90;91.50;;;29.15;51.16;101682.84;4955558;28;20038;-75
2022/08/13 08:43:00;;;;;;;9.00;2.70;;;29.60;92.90;;;29.41;50.90;101677.22;4957408;28;20065;-77
2022/08/13 08:45:26;;;;;;;8.05;2.83;;;29.60;92.60;;;29.27;51.73;101675.22;4972223;28;20038;-76
2022/08/13 08:47:52;;;;;;;15.57;2.65;;;29.50;92.40;;;29.20;51.62;101675.06;4972897;28;20051;-76
2022/08/13 08:50:26;;;;;;;7.28;2.85;;;29.60;91.90;;;29.39;50.62;101671.13;4947529;28;20031;-76
2022/08/13 08:55:39;;;;;;;12.80;2.70;;;29.80;92.40;;;29.69;50.59;101668.72;4970566;28;20105;-76
2022/08/13 08:58:09;;;;;;;5.90;2.50;;;29.80;91.90;;;29.56;50.69;101666.50;4955553;28;20121;-76
2022/08/13 09:00:36;;;;;;;11.48;2.55;;;29.90;92.60;;;29.82;51.05;101663.56;4955317;28;20031;-76
2022/08/13 09:03:04;;;;;;;5.85;2.63;;;30.00;92.70;;;29.83;50.58;101668.00;4933797;28;20465;-76
2022/08/13 09:05:30;;;;;;;9.43;2.72;;;30.00;91.90;;;29.76;50.58;101671.56;4968213;28;20121;-76
2022/08/13 09:07:59;;;;;;;14.32;2.63;;;30.20;91.70;;;30.13;49.72;101670.06;4957933;28;20031;-76
2022/08/13 09:10:25;;;;;;;11.77;2.70;;;30.50;92.20;;;30.52;49.80;101666.47;4961041;28;20042;-76
2022/08/13 09:12:52;;;;;;;4.28;2.70;;;30.60;91.10;;;30.41;48.99;101673.16;4954937;28;20085;-76
2022/08/13 09:15:23;;;;;;;9.73;3.03;;;30.80;91.10;;;30.62;48.39;101670.63;4956940;28;20030;-77
2022/08/13 09:17:51;;;;;;;8.98;2.28;;;30.90;91.30;;;30.79;49.09;101676.78;4958041;28;20054;-77
2022/08/13 09:20:30;;;;;;;11.60;2.80;;;31.00;90.60;;;30.96;47.86;101676.69;4941328;28;20108;-76
2022/08/13 09:23:08;;;;;;;18.58;3.45;;;31.20;90.50;;;31.14;47.64;101679.91;4959067;28;20057;-76
2022/08/13 09:25:48;;;;;;;4.45;2.50;;;31.30;90.80;;;31.25;47.27;101682.22;4950608;28;20058;-76
2022/08/13 09:28:23;;;;;;;12.77;2.53;;;31.50;89.70;;;31.32;46.50;101682.31;4959556;28;20046;-76
2022/08/13 09:30:54;;;;;;;12.05;2.80;;;31.40;87.90;;;31.14;45.88;101684.53;4962465;28;20039;-76
2022/08/13 09:33:23;;;;;;;9.85;2.97;;;31.40;87.60;;;31.15;45.43;101675.34;4972141;28;20462;-76
2022/08/13 09:35:54;;;;;;;11.48;2.72;;;31.30;87.60;;;30.96;45.93;101673.97;4970758;28;20051;-76
2022/08/13 09:38:21;;;;;;;7.45;2.90;;;31.30;87.00;;;30.83;45.53;101683.56;4955106;28;20130;-76
2022/08/13 09:41:02;;;;;;;9.32;3.10;;;31.20;89.70;;;30.68;46.23;101677.22;4956792;28;20455;-76
2022/08/13 09:43:40;;;;;;;9.80;2.42;;;31.10;87.50;;;30.78;45.40;101680.56;4961667;28;20403;-76
2022/08/13 09:46:09;;;;;;;3.42;2.20;;;31.00;83.50;;;30.59;43.91;101673.72;4959230;28;20030;-76
2022/08/13 09:48:36;;;;;;;4.40;2.63;;;31.00;83.40;;;30.42;43.77;101678.41;4942828;28;20041;-76
2022/08/13 09:51:02;;;;;;;8.73;2.47;;;30.90;83.50;;;30.55;43.76;101676.97;4975422;28;20037;-76
2022/08/13 09:53:28;;;;;;;6.88;2.35;;;30.80;84.00;;;30.36;43.60;101676.41;4954348;28;20046;-77
2022/08/13 09:56:00;;;;;;;6.10;2.75;;;30.90;84.80;;;30.54;44.00;101673.44;4961944;28;20403;-77
2022/08/13 09:58:26;;;;;;;19.42;2.88;;;30.90;86.00;;;30.66;44.61;101677.41;4962121;28;20394;-76
2022/08/13 10:00:55;;;;;;;8.93;2.40;;;31.10;86.10;;;30.96;44.16;101680.25;4952685;28;20023;-76
2022/08/13 10:03:27;;;;;;;9.70;2.58;;;31.30;86.00;;;31.23;43.29;101689.72;4976026;28;20034;-77
2022/08/13 10:05:53;;;;;;;12.90;2.70;;;31.50;85.30;;;31.30;44.02;101681.66;4962086;28;20038;-76
2022/08/13 10:08:19;;;;;;;6.10;2.35;;;31.40;83.40;;;31.06;43.10;101682.75;4941711;28;20093;-76
2022/08/13 10:10:49;;;;;;;3.92;2.00;;;31.30;82.40;;;30.64;43.23;101670.44;4945882;28;20026;-77
2022/08/13 10:13:19;;;;;;;10.38;2.50;;;31.10;82.80;;;30.67;43.10;101668.22;4965569;28;20117;-76
2022/08/13 10:15:45;;;;;;;4.30;2.05;;;31.10;85.30;;;30.80;44.26;101673.06;4959925;28;20053;-76
2022/08/13 10:18:11;;;;;;;8.65;2.45;;;31.30;85.50;;;31.27;42.97;101679.28;4971959;28;20113;-76
2022/08/13 10:20:40;;;;;;;7.90;2.22;;;31.50;82.00;;;31.05;41.75;101670.16;4977146;28;20034;-76
2022/08/13 10:23:13;;;;;;;6.53;2.20;;;31.30;83.50;;;30.86;43.31;101664.22;4956244;28;20031;-76
2022/08/13 10:25:39;;;;;;;5.28;2.05;;;31.40;84.30;;;31.17;43.42;101670.56;4961719;28;20126;-77
2022/08/13 10:28:33;;;;;;;9.75;2.30;;;31.50;82.80;;;31.46;41.86;101673.34;4959559;28;20162;-76
2022/08/13 10:31:07;;;;;;;9.38;2.13;;;31.60;82.60;;;31.37;42.15;101674.44;4962666;28;20047;-77
2022/08/13 10:33:37;;;;;;;6.18;2.33;;;31.50;82.20;;;31.03;42.58;101666.78;4968301;28;20046;-76
2022/08/13 10:36:06;;;;;;;7.40;2.10;;;31.50;82.20;;;30.97;43.07;101664.78;4976783;28;20041;-76
2022/08/13 10:38:35;;;;;;;3.95;2.10;;;31.50;82.10;;;31.20;42.29;101662.88;4973901;28;20081;-76
2022/08/13 10:41:08;;;;;;;5.55;2.17;;;31.70;84.30;;;31.45;42.00;101662.66;4955169;28;20808;-78